sensor_id;sensor_type;location;lat;lon;timestamp;P1;durP1;ratioP1;P2;durP2;ratioP2
22103;SDS011;11218;48.886;9.426;2023-02-28T00:01:25;15.77;;;4.73;;
22103;SDS011;11218;48.886;9.426;2023-02-28T00:03:54;15.43;;;4.47;;
22103;SDS011;11218;48.886;9.426;2023-02-28T00:06:22;18.33;;;5.07;;
22103;SDS011;11218;48.886;9.426;2023-02-28T00:08:51;16.77;;;5.20;;
22103;SDS011;11218;48.886;9.426;2023-02-28T00:11:21;20.07;;;5.27;;
22103;SDS011;11218;48.886;9.426;2023-02-28T00:13:50;14.50;;;5.00;;
22103;SDS011;11218;48.886;9.426;2023-02-28T00:16:19;13.20;;;4.83;;
22103;SDS011;11218;48.886;9.426;2023-02-28T00:18:50;11.57;;;4.83;;
22103;SDS011;11218;48.886;9.426;2023-02-28T00:21:18;18.80;;;5.10;;
22103;SDS011;11218;48.886;9.426;2023-02-28T00:23:47;17.10;;;5.57;;
22103;SDS011;11218;48.886;9.426;2023-02-28T00:26:15;16.73;;;5.13;;
22103;SDS011;11218;48.886;9.426;2023-02-28T00:28:48;17.53;;;5.93;;
22103;SDS011;11218;48.886;9.426;2023-02-28T00:31:19;16.23;;;4.70;;
22103;SDS011;11218;48.886;9.426;2023-02-28T00:33:46;18.10;;;5.60;;
22103;SDS011;11218;48.886;9.426;2023-02-28T00:36:15;19.27;;;6.17;;
22103;SDS011;11218;48.886;9.426;2023-02-28T00:38:43;17.67;;;5.53;;
22103;SDS011;11218;48.886;9.426;2023-02-28T00:41:11;20.93;;;5.50;;
22103;SDS011;11218;48.886;9.426;2023-02-28T00:43:39;16.00;;;5.10;;
22103;SDS011;11218;48.886;9.426;2023-02-28T00:46:09;20.23;;;5.70;;
22103;SDS011;11218;48.886;9.426;2023-02-28T00:48:37;20.43;;;5.83;;
22103;SDS011;11218;48.886;9.426;2023-02-28T00:51:05;18.40;;;5.77;;
22103;SDS011;11218;48.886;9.426;2023-02-28T00:53:33;23.60;;;6.23;;
22103;SDS011;11218;48.886;9.426;2023-02-28T00:56:02;16.50;;;5.50;;
22103;SDS011;11218;48.886;9.426;2023-02-28T00:58:30;16.40;;;5.17;;
22103;SDS011;11218;48.886;9.426;2023-02-28T01:00:58;18.63;;;6.33;;
22103;SDS011;11218;48.886;9.426;2023-02-28T01:03:28;17.20;;;5.67;;
22103;SDS011;11218;48.886;9.426;2023-02-28T01:05:56;16.03;;;5.53;;
22103;SDS011;11218;48.886;9.426;2023-02-28T01:08:25;16.63;;;5.53;;
22103;SDS011;11218;48.886;9.426;2023-02-28T01:10:53;17.37;;;5.70;;
22103;SDS011;11218;48.886;9.426;2023-02-28T01:13:21;21.60;;;6.13;;
22103;SDS011;11218;48.886;9.426;2023-02-28T01:15:52;27.23;;;6.80;;
22103;SDS011;11218;48.886;9.426;2023-02-28T01:18:23;20.77;;;6.13;;
22103;SDS011;11218;48.886;9.426;2023-02-28T01:20:53;18.13;;;5.87;;
22103;SDS011;11218;48.886;9.426;2023-02-28T01:23:24;19.20;;;6.33;;
22103;SDS011;11218;48.886;9.426;2023-02-28T01:25:52;25.40;;;7.10;;
22103;SDS011;11218;48.886;9.426;2023-02-28T01:28:21;20.03;;;6.30;;
22103;SDS011;11218;48.886;9.426;2023-02-28T01:30:49;23.27;;;7.10;;
22103;SDS011;11218;48.886;9.426;2023-02-28T01:33:18;19.17;;;6.43;;
22103;SDS011;11218;48.886;9.426;2023-02-28T01:35:46;23.87;;;7.30;;
22103;SDS011;11218;48.886;9.426;2023-02-28T01:38:16;23.13;;;7.17;;
22103;SDS011;11218;48.886;9.426;2023-02-28T01:40:49;19.73;;;6.30;;
22103;SDS011;11218;48.886;9.426;2023-02-28T01:43:20;20.77;;;6.27;;
22103;SDS011;11218;48.886;9.426;2023-02-28T01:45:50;23.43;;;6.60;;
22103;SDS011;11218;48.886;9.426;2023-02-28T01:48:19;16.73;;;5.87;;
22103;SDS011;11218;48.886;9.426;2023-02-28T01:50:52;22.03;;;6.93;;
22103;SDS011;11218;48.886;9.426;2023-02-28T01:53:26;19.40;;;6.63;;
22103;SDS011;11218;48.886;9.426;2023-02-28T01:55:59;15.50;;;5.87;;
22103;SDS011;11218;48.886;9.426;2023-02-28T01:58:28;20.13;;;6.90;;
22103;SDS011;11218;48.886;9.426;2023-02-28T02:00:56;16.33;;;6.10;;
22103;SDS011;11218;48.886;9.426;2023-02-28T02:03:24;20.87;;;6.93;;
22103;SDS011;11218;48.886;9.426;2023-02-28T02:05:53;18.93;;;6.60;;
22103;SDS011;11218;48.886;9.426;2023-02-28T02:08:21;17.77;;;6.50;;
22103;SDS011;11218;48.886;9.426;2023-02-28T02:10:53;20.40;;;6.73;;
22103;SDS011;11218;48.886;9.426;2023-02-28T02:13:36;21.33;;;6.60;;
22103;SDS011;11218;48.886;9.426;2023-02-28T02:16:20;16.23;;;6.40;;
22103;SDS011;11218;48.886;9.426;2023-02-28T02:19:04;18.03;;;6.60;;
22103;SDS011;11218;48.886;9.426;2023-02-28T02:22:05;17.87;;;6.30;;
22103;SDS011;11218;48.886;9.426;2023-02-28T02:24:54;17.70;;;6.03;;
22103;SDS011;11218;48.886;9.426;2023-02-28T02:27:57;14.77;;;6.10;;
22103;SDS011;11218;48.886;9.426;2023-02-28T02:30:48;20.27;;;7.17;;
22103;SDS011;11218;48.886;9.426;2023-02-28T02:33:41;20.77;;;6.97;;
22103;SDS011;11218;48.886;9.426;2023-02-28T02:36:33;20.13;;;6.60;;
22103;SDS011;11218;48.886;9.426;2023-02-28T02:39:08;21.17;;;6.97;;
22103;SDS011;11218;48.886;9.426;2023-02-28T02:41:45;27.13;;;7.83;;
22103;SDS011;11218;48.886;9.426;2023-02-28T02:44:19;26.40;;;7.70;;
22103;SDS011;11218;48.886;9.426;2023-02-28T02:46:51;24.10;;;7.83;;
22103;SDS011;11218;48.886;9.426;2023-02-28T02:49:24;25.13;;;7.73;;
22103;SDS011;11218;48.886;9.426;2023-02-28T02:51:56;27.00;;;7.63;;
22103;SDS011;11218;48.886;9.426;2023-02-28T02:54:30;17.40;;;6.63;;
22103;SDS011;11218;48.886;9.426;2023-02-28T02:57:03;28.27;;;8.60;;
22103;SDS011;11218;48.886;9.426;2023-02-28T02:59:38;29.50;;;8.57;;
22103;SDS011;11218;48.886;9.426;2023-02-28T03:02:09;21.20;;;6.77;;
22103;SDS011;11218;48.886;9.426;2023-02-28T03:04:45;17.40;;;6.40;;
22103;SDS011;11218;48.886;9.426;2023-02-28T03:07:16;21.77;;;7.60;;
22103;SDS011;11218;48.886;9.426;2023-02-28T03:09:49;27.40;;;7.90;;
22103;SDS011;11218;48.886;9.426;2023-02-28T03:12:18;24.80;;;7.80;;
22103;SDS011;11218;48.886;9.426;2023-02-28T03:14:51;20.57;;;7.80;;
22103;SDS011;11218;48.886;9.426;2023-02-28T03:20:35;21.53;;;7.53;;
22103;SDS011;11218;48.886;9.426;2023-02-28T03:23:10;24.13;;;7.47;;
22103;SDS011;11218;48.886;9.426;2023-02-28T03:25:47;26.73;;;8.23;;
22103;SDS011;11218;48.886;9.426;2023-02-28T03:28:28;23.07;;;7.60;;
22103;SDS011;11218;48.886;9.426;2023-02-28T03:31:07;26.40;;;8.57;;
22103;SDS011;11218;48.886;9.426;2023-02-28T03:33:46;22.10;;;7.97;;
22103;SDS011;11218;48.886;9.426;2023-02-28T03:36:24;21.53;;;7.40;;
22103;SDS011;11218;48.886;9.426;2023-02-28T03:38:56;26.10;;;8.30;;
22103;SDS011;11218;48.886;9.426;2023-02-28T03:41:30;27.33;;;8.37;;
22103;SDS011;11218;48.886;9.426;2023-02-28T03:44:03;24.93;;;8.13;;
22103;SDS011;11218;48.886;9.426;2023-02-28T03:46:37;23.33;;;7.73;;
22103;SDS011;11218;48.886;9.426;2023-02-28T03:49:11;24.27;;;8.10;;
22103;SDS011;11218;48.886;9.426;2023-02-28T03:51:46;27.67;;;8.73;;
22103;SDS011;11218;48.886;9.426;2023-02-28T03:54:17;27.10;;;7.67;;
22103;SDS011;11218;48.886;9.426;2023-02-28T03:56:51;19.83;;;7.27;;
22103;SDS011;11218;48.886;9.426;2023-02-28T03:59:25;22.80;;;7.77;;
22103;SDS011;11218;48.886;9.426;2023-02-28T04:01:56;20.73;;;7.80;;
22103;SDS011;11218;48.886;9.426;2023-02-28T04:04:26;24.70;;;8.37;;
22103;SDS011;11218;48.886;9.426;2023-02-28T04:07:02;21.93;;;7.73;;
22103;SDS011;11218;48.886;9.426;2023-02-28T04:09:32;24.57;;;7.83;;
22103;SDS011;11218;48.886;9.426;2023-02-28T04:12:00;21.93;;;7.63;;
22103;SDS011;11218;48.886;9.426;2023-02-28T04:14:28;22.90;;;7.63;;
22103;SDS011;11218;48.886;9.426;2023-02-28T04:16:57;24.77;;;7.60;;
22103;SDS011;11218;48.886;9.426;2023-02-28T04:19:25;26.27;;;8.10;;
22103;SDS011;11218;48.886;9.426;2023-02-28T04:21:53;25.57;;;8.33;;
22103;SDS011;11218;48.886;9.426;2023-02-28T04:24:23;25.80;;;8.17;;
22103;SDS011;11218;48.886;9.426;2023-02-28T04:26:54;23.30;;;8.07;;
22103;SDS011;11218;48.886;9.426;2023-02-28T04:29:24;26.63;;;8.77;;
22103;SDS011;11218;48.886;9.426;2023-02-28T04:31:54;24.17;;;8.47;;
22103;SDS011;11218;48.886;9.426;2023-02-28T04:34:24;26.43;;;8.50;;
22103;SDS011;11218;48.886;9.426;2023-02-28T04:36:54;22.50;;;7.70;;
22103;SDS011;11218;48.886;9.426;2023-02-28T04:39:39;22.60;;;7.87;;
22103;SDS011;11218;48.886;9.426;2023-02-28T04:42:08;23.67;;;8.30;;
22103;SDS011;11218;48.886;9.426;2023-02-28T04:44:36;18.93;;;7.87;;
22103;SDS011;11218;48.886;9.426;2023-02-28T04:47:04;22.27;;;7.93;;
22103;SDS011;11218;48.886;9.426;2023-02-28T04:49:32;22.13;;;8.20;;
22103;SDS011;11218;48.886;9.426;2023-02-28T04:52:00;22.63;;;8.00;;
22103;SDS011;11218;48.886;9.426;2023-02-28T04:54:29;20.43;;;8.43;;
22103;SDS011;11218;48.886;9.426;2023-02-28T04:56:58;57.47;;;12.53;;
22103;SDS011;11218;48.886;9.426;2023-02-28T04:59:27;24.87;;;7.83;;
22103;SDS011;11218;48.886;9.426;2023-02-28T05:01:56;21.80;;;8.73;;
22103;SDS011;11218;48.886;9.426;2023-02-28T05:04:24;21.30;;;8.10;;
22103;SDS011;11218;48.886;9.426;2023-02-28T05:06:52;26.10;;;9.13;;
22103;SDS011;11218;48.886;9.426;2023-02-28T05:09:21;19.23;;;7.73;;
22103;SDS011;11218;48.886;9.426;2023-02-28T05:11:49;28.00;;;9.43;;
22103;SDS011;11218;48.886;9.426;2023-02-28T05:14:19;22.87;;;8.20;;
22103;SDS011;11218;48.886;9.426;2023-02-28T05:16:49;22.43;;;8.20;;
22103;SDS011;11218;48.886;9.426;2023-02-28T05:19:17;25.97;;;9.27;;
22103;SDS011;11218;48.886;9.426;2023-02-28T05:21:49;24.40;;;8.50;;
22103;SDS011;11218;48.886;9.426;2023-02-28T05:24:19;28.03;;;9.20;;
22103;SDS011;11218;48.886;9.426;2023-02-28T05:26:49;27.93;;;9.60;;
22103;SDS011;11218;48.886;9.426;2023-02-28T05:29:20;26.37;;;9.60;;
22103;SDS011;11218;48.886;9.426;2023-02-28T05:31:49;37.23;;;10.60;;
22103;SDS011;11218;48.886;9.426;2023-02-28T05:34:17;23.47;;;8.23;;
22103;SDS011;11218;48.886;9.426;2023-02-28T05:36:46;26.23;;;8.60;;
22103;SDS011;11218;48.886;9.426;2023-02-28T05:39:14;24.20;;;8.70;;
22103;SDS011;11218;48.886;9.426;2023-02-28T05:41:42;24.30;;;9.40;;
22103;SDS011;11218;48.886;9.426;2023-02-28T05:44:11;34.73;;;10.50;;
22103;SDS011;11218;48.886;9.426;2023-02-28T05:46:41;30.53;;;9.73;;
22103;SDS011;11218;48.886;9.426;2023-02-28T05:49:08;28.63;;;9.10;;
22103;SDS011;11218;48.886;9.426;2023-02-28T05:51:37;29.10;;;9.63;;
22103;SDS011;11218;48.886;9.426;2023-02-28T05:54:06;27.60;;;10.03;;
22103;SDS011;11218;48.886;9.426;2023-02-28T05:56:34;27.60;;;9.60;;
22103;SDS011;11218;48.886;9.426;2023-02-28T05:59:05;24.77;;;8.63;;
22103;SDS011;11218;48.886;9.426;2023-02-28T06:01:34;28.70;;;9.33;;
22103;SDS011;11218;48.886;9.426;2023-02-28T06:04:06;31.23;;;9.90;;
22103;SDS011;11218;48.886;9.426;2023-02-28T06:06:47;28.20;;;9.60;;
22103;SDS011;11218;48.886;9.426;2023-02-28T06:09:16;30.43;;;9.53;;
22103;SDS011;11218;48.886;9.426;2023-02-28T06:11:45;28.60;;;9.57;;
22103;SDS011;11218;48.886;9.426;2023-02-28T06:14:14;26.13;;;9.10;;
22103;SDS011;11218;48.886;9.426;2023-02-28T06:16:46;23.90;;;9.57;;
22103;SDS011;11218;48.886;9.426;2023-02-28T06:19:16;20.67;;;9.00;;
22103;SDS011;11218;48.886;9.426;2023-02-28T06:21:44;24.47;;;9.60;;
22103;SDS011;11218;48.886;9.426;2023-02-28T06:24:13;22.17;;;8.40;;
22103;SDS011;11218;48.886;9.426;2023-02-28T06:26:41;25.60;;;8.63;;
22103;SDS011;11218;48.886;9.426;2023-02-28T06:29:11;24.57;;;9.50;;
22103;SDS011;11218;48.886;9.426;2023-02-28T06:31:44;29.50;;;10.07;;
22103;SDS011;11218;48.886;9.426;2023-02-28T06:34:13;36.20;;;11.20;;
22103;SDS011;11218;48.886;9.426;2023-02-28T06:36:46;33.10;;;10.47;;
22103;SDS011;11218;48.886;9.426;2023-02-28T06:39:15;33.03;;;10.87;;
22103;SDS011;11218;48.886;9.426;2023-02-28T06:41:43;25.00;;;9.23;;
22103;SDS011;11218;48.886;9.426;2023-02-28T06:44:21;29.23;;;10.20;;
22103;SDS011;11218;48.886;9.426;2023-02-28T06:46:49;42.53;;;11.33;;
22103;SDS011;11218;48.886;9.426;2023-02-28T06:49:17;35.83;;;10.80;;
22103;SDS011;11218;48.886;9.426;2023-02-28T06:51:47;34.83;;;9.90;;
22103;SDS011;11218;48.886;9.426;2023-02-28T06:54:16;27.40;;;9.87;;
22103;SDS011;11218;48.886;9.426;2023-02-28T06:56:44;29.80;;;10.23;;
22103;SDS011;11218;48.886;9.426;2023-02-28T06:59:13;38.70;;;11.77;;
22103;SDS011;11218;48.886;9.426;2023-02-28T07:01:41;37.37;;;11.17;;
22103;SDS011;11218;48.886;9.426;2023-02-28T07:04:09;33.13;;;10.53;;
22103;SDS011;11218;48.886;9.426;2023-02-28T07:06:37;29.00;;;10.20;;
22103;SDS011;11218;48.886;9.426;2023-02-28T07:09:06;35.33;;;11.20;;
22103;SDS011;11218;48.886;9.426;2023-02-28T07:11:37;36.10;;;11.33;;
22103;SDS011;11218;48.886;9.426;2023-02-28T07:14:05;33.30;;;10.27;;
22103;SDS011;11218;48.886;9.426;2023-02-28T07:16:34;31.23;;;10.57;;
22103;SDS011;11218;48.886;9.426;2023-02-28T07:19:03;33.50;;;10.60;;
22103;SDS011;11218;48.886;9.426;2023-02-28T07:21:31;37.40;;;11.50;;
22103;SDS011;11218;48.886;9.426;2023-02-28T07:23:59;32.33;;;10.70;;
22103;SDS011;11218;48.886;9.426;2023-02-28T07:26:28;29.80;;;10.43;;
22103;SDS011;11218;48.886;9.426;2023-02-28T07:28:56;37.57;;;11.67;;
22103;SDS011;11218;48.886;9.426;2023-02-28T07:31:25;30.47;;;10.40;;
22103;SDS011;11218;48.886;9.426;2023-02-28T07:33:54;26.57;;;10.10;;
22103;SDS011;11218;48.886;9.426;2023-02-28T07:36:22;29.43;;;10.40;;
22103;SDS011;11218;48.886;9.426;2023-02-28T07:38:52;34.27;;;11.17;;
22103;SDS011;11218;48.886;9.426;2023-02-28T07:41:20;37.23;;;11.57;;
22103;SDS011;11218;48.886;9.426;2023-02-28T07:43:54;29.73;;;11.23;;
22103;SDS011;11218;48.886;9.426;2023-02-28T07:46:23;35.73;;;11.90;;
22103;SDS011;11218;48.886;9.426;2023-02-28T07:48:55;32.70;;;11.27;;
22103;SDS011;11218;48.886;9.426;2023-02-28T07:51:26;32.13;;;11.23;;
22103;SDS011;11218;48.886;9.426;2023-02-28T07:53:55;25.77;;;10.17;;
22103;SDS011;11218;48.886;9.426;2023-02-28T07:56:24;40.20;;;12.00;;
22103;SDS011;11218;48.886;9.426;2023-02-28T07:58:54;45.47;;;13.57;;
22103;SDS011;11218;48.886;9.426;2023-02-28T08:01:22;41.67;;;12.30;;
22103;SDS011;11218;48.886;9.426;2023-02-28T08:03:51;34.13;;;11.10;;
22103;SDS011;11218;48.886;9.426;2023-02-28T08:06:21;32.10;;;10.97;;
22103;SDS011;11218;48.886;9.426;2023-02-28T08:08:50;31.17;;;11.33;;
22103;SDS011;11218;48.886;9.426;2023-02-28T08:11:18;42.87;;;12.33;;
22103;SDS011;11218;48.886;9.426;2023-02-28T08:13:48;40.70;;;11.67;;
22103;SDS011;11218;48.886;9.426;2023-02-28T08:16:18;37.60;;;11.77;;
22103;SDS011;11218;48.886;9.426;2023-02-28T08:18:49;37.43;;;12.43;;
22103;SDS011;11218;48.886;9.426;2023-02-28T08:21:18;30.93;;;11.27;;
22103;SDS011;11218;48.886;9.426;2023-02-28T08:23:47;35.43;;;11.60;;
22103;SDS011;11218;48.886;9.426;2023-02-28T08:26:18;46.03;;;12.97;;
22103;SDS011;11218;48.886;9.426;2023-02-28T08:28:47;42.70;;;12.63;;
22103;SDS011;11218;48.886;9.426;2023-02-28T08:31:15;35.57;;;12.63;;
22103;SDS011;11218;48.886;9.426;2023-02-28T08:33:46;42.53;;;12.87;;
22103;SDS011;11218;48.886;9.426;2023-02-28T08:36:15;40.80;;;12.30;;
22103;SDS011;11218;48.886;9.426;2023-02-28T08:38:43;30.27;;;11.67;;
22103;SDS011;11218;48.886;9.426;2023-02-28T08:41:13;32.90;;;11.90;;
22103;SDS011;11218;48.886;9.426;2023-02-28T08:43:42;43.63;;;13.73;;
22103;SDS011;11218;48.886;9.426;2023-02-28T08:46:11;48.77;;;13.27;;
22103;SDS011;11218;48.886;9.426;2023-02-28T08:48:40;32.83;;;11.77;;
22103;SDS011;11218;48.886;9.426;2023-02-28T08:51:15;35.53;;;11.97;;
22103;SDS011;11218;48.886;9.426;2023-02-28T08:53:48;45.57;;;13.30;;
22103;SDS011;11218;48.886;9.426;2023-02-28T08:56:16;30.17;;;11.37;;
22103;SDS011;11218;48.886;9.426;2023-02-28T08:58:47;30.37;;;11.83;;
22103;SDS011;11218;48.886;9.426;2023-02-28T09:01:18;35.23;;;12.07;;
22103;SDS011;11218;48.886;9.426;2023-02-28T09:03:48;30.50;;;11.83;;
22103;SDS011;11218;48.886;9.426;2023-02-28T09:06:19;36.77;;;12.53;;
22103;SDS011;11218;48.886;9.426;2023-02-28T09:08:49;26.70;;;10.97;;
22103;SDS011;11218;48.886;9.426;2023-02-28T09:11:18;31.27;;;11.97;;
22103;SDS011;11218;48.886;9.426;2023-02-28T09:13:46;35.97;;;11.87;;
22103;SDS011;11218;48.886;9.426;2023-02-28T09:16:15;31.90;;;11.00;;
22103;SDS011;11218;48.886;9.426;2023-02-28T09:18:48;35.53;;;12.67;;
22103;SDS011;11218;48.886;9.426;2023-02-28T09:21:18;31.00;;;12.50;;
22103;SDS011;11218;48.886;9.426;2023-02-28T09:23:48;27.23;;;11.67;;
22103;SDS011;11218;48.886;9.426;2023-02-28T09:26:18;32.87;;;12.03;;
22103;SDS011;11218;48.886;9.426;2023-02-28T09:28:49;33.70;;;11.73;;
22103;SDS011;11218;48.886;9.426;2023-02-28T09:31:19;32.03;;;12.20;;
22103;SDS011;11218;48.886;9.426;2023-02-28T09:33:49;31.53;;;11.90;;
22103;SDS011;11218;48.886;9.426;2023-02-28T09:36:20;28.37;;;11.33;;
22103;SDS011;11218;48.886;9.426;2023-02-28T09:38:59;32.23;;;12.53;;
22103;SDS011;11218;48.886;9.426;2023-02-28T09:41:30;26.73;;;11.57;;
22103;SDS011;11218;48.886;9.426;2023-02-28T09:44:06;27.63;;;11.63;;
22103;SDS011;11218;48.886;9.426;2023-02-28T09:46:48;35.42;;;13.60;;
22103;SDS011;11218;48.886;9.426;2023-02-28T09:49:21;32.07;;;12.60;;
22103;SDS011;11218;48.886;9.426;2023-02-28T09:51:55;30.37;;;12.03;;
22103;SDS011;11218;48.886;9.426;2023-02-28T09:54:27;31.23;;;12.03;;
22103;SDS011;11218;48.886;9.426;2023-02-28T09:56:59;31.30;;;12.30;;
22103;SDS011;11218;48.886;9.426;2023-02-28T09:59:38;30.13;;;11.80;;
22103;SDS011;11218;48.886;9.426;2023-02-28T10:02:16;30.77;;;12.48;;
22103;SDS011;11218;48.886;9.426;2023-02-28T10:04:58;31.10;;;12.40;;
22103;SDS011;11218;48.886;9.426;2023-02-28T10:07:43;30.80;;;12.68;;
22103;SDS011;11218;48.886;9.426;2023-02-28T10:10:27;33.83;;;12.85;;
22103;SDS011;11218;48.886;9.426;2023-02-28T10:13:00;34.67;;;13.23;;
22103;SDS011;11218;48.886;9.426;2023-02-28T10:15:32;31.38;;;13.13;;
22103;SDS011;11218;48.886;9.426;2023-02-28T10:18:03;27.33;;;11.88;;
22103;SDS011;11218;48.886;9.426;2023-02-28T10:20:39;28.10;;;12.40;;
22103;SDS011;11218;48.886;9.426;2023-02-28T10:23:11;26.02;;;12.23;;
22103;SDS011;11218;48.886;9.426;2023-02-28T10:25:44;25.33;;;12.07;;
22103;SDS011;11218;48.886;9.426;2023-02-28T10:28:17;36.07;;;13.70;;
22103;SDS011;11218;48.886;9.426;2023-02-28T10:30:46;29.20;;;12.32;;
22103;SDS011;11218;48.886;9.426;2023-02-28T10:33:21;39.45;;;14.05;;
22103;SDS011;11218;48.886;9.426;2023-02-28T10:35:51;40.15;;;13.98;;
22103;SDS011;11218;48.886;9.426;2023-02-28T10:38:23;43.15;;;14.20;;
22103;SDS011;11218;48.886;9.426;2023-02-28T10:41:03;37.72;;;13.98;;
22103;SDS011;11218;48.886;9.426;2023-02-28T10:43:33;45.13;;;15.00;;
22103;SDS011;11218;48.886;9.426;2023-02-28T10:46:02;37.70;;;13.02;;
22103;SDS011;11218;48.886;9.426;2023-02-28T10:48:34;39.40;;;13.70;;
22103;SDS011;11218;48.886;9.426;2023-02-28T10:51:05;31.55;;;13.18;;
22103;SDS011;11218;48.886;9.426;2023-02-28T10:53:39;32.30;;;13.35;;
22103;SDS011;11218;48.886;9.426;2023-02-28T10:56:27;34.58;;;12.90;;
22103;SDS011;11218;48.886;9.426;2023-02-28T10:58:57;30.92;;;12.95;;
22103;SDS011;11218;48.886;9.426;2023-02-28T11:01:37;27.83;;;12.32;;
22103;SDS011;11218;48.886;9.426;2023-02-28T11:04:18;34.72;;;12.45;;
22103;SDS011;11218;48.886;9.426;2023-02-28T11:06:51;34.72;;;13.02;;
22103;SDS011;11218;48.886;9.426;2023-02-28T11:09:27;35.50;;;13.32;;
22103;SDS011;11218;48.886;9.426;2023-02-28T11:11:58;30.08;;;12.38;;
22103;SDS011;11218;48.886;9.426;2023-02-28T11:14:27;30.25;;;12.45;;
22103;SDS011;11218;48.886;9.426;2023-02-28T11:16:59;30.88;;;12.80;;
22103;SDS011;11218;48.886;9.426;2023-02-28T11:19:44;41.78;;;14.23;;
22103;SDS011;11218;48.886;9.426;2023-02-28T11:22:17;36.47;;;13.18;;
22103;SDS011;11218;48.886;9.426;2023-02-28T11:24:49;39.30;;;12.93;;
22103;SDS011;11218;48.886;9.426;2023-02-28T11:27:24;56.55;;;15.52;;
22103;SDS011;11218;48.886;9.426;2023-02-28T11:29:54;33.92;;;12.52;;
22103;SDS011;11218;48.886;9.426;2023-02-28T11:32:23;36.60;;;13.30;;
22103;SDS011;11218;48.886;9.426;2023-02-28T11:35:02;28.67;;;11.63;;
22103;SDS011;11218;48.886;9.426;2023-02-28T11:37:42;30.50;;;13.15;;
22103;SDS011;11218;48.886;9.426;2023-02-28T11:40:13;44.20;;;13.38;;
22103;SDS011;11218;48.886;9.426;2023-02-28T11:42:45;31.08;;;12.30;;
22103;SDS011;11218;48.886;9.426;2023-02-28T11:45:22;28.60;;;12.70;;
22103;SDS011;11218;48.886;9.426;2023-02-28T11:48:04;27.50;;;11.90;;
22103;SDS011;11218;48.886;9.426;2023-02-28T11:50:45;34.08;;;12.13;;
22103;SDS011;11218;48.886;9.426;2023-02-28T11:53:22;35.60;;;13.27;;
22103;SDS011;11218;48.886;9.426;2023-02-28T11:56:03;30.95;;;11.93;;
22103;SDS011;11218;48.886;9.426;2023-02-28T11:58:39;29.58;;;11.05;;
22103;SDS011;11218;48.886;9.426;2023-02-28T12:01:22;30.05;;;12.15;;
22103;SDS011;11218;48.886;9.426;2023-02-28T12:04:04;24.33;;;11.07;;
22103;SDS011;11218;48.886;9.426;2023-02-28T12:06:45;30.60;;;11.90;;
22103;SDS011;11218;48.886;9.426;2023-02-28T12:12:21;32.00;;;11.85;;
22103;SDS011;11218;48.886;9.426;2023-02-28T12:15:04;35.75;;;12.98;;
22103;SDS011;11218;48.886;9.426;2023-02-28T12:17:56;23.80;;;11.20;;
22103;SDS011;11218;48.886;9.426;2023-02-28T12:20:37;25.70;;;11.13;;
22103;SDS011;11218;48.886;9.426;2023-02-28T12:23:15;24.40;;;10.90;;
22103;SDS011;11218;48.886;9.426;2023-02-28T12:26:00;29.00;;;11.23;;
22103;SDS011;11218;48.886;9.426;2023-02-28T12:28:38;28.63;;;11.90;;
22103;SDS011;11218;48.886;9.426;2023-02-28T12:31:12;31.73;;;11.98;;
22103;SDS011;11218;48.886;9.426;2023-02-28T12:33:47;23.20;;;10.95;;
22103;SDS011;11218;48.886;9.426;2023-02-28T12:36:19;30.80;;;12.18;;
22103;SDS011;11218;48.886;9.426;2023-02-28T12:38:51;28.42;;;11.68;;
22103;SDS011;11218;48.886;9.426;2023-02-28T12:41:26;30.23;;;11.40;;
22103;SDS011;11218;48.886;9.426;2023-02-28T12:44:00;26.23;;;11.35;;
22103;SDS011;11218;48.886;9.426;2023-02-28T12:46:32;31.23;;;11.32;;
22103;SDS011;11218;48.886;9.426;2023-02-28T12:49:04;35.13;;;12.55;;
22103;SDS011;11218;48.886;9.426;2023-02-28T12:51:37;31.88;;;11.57;;
22103;SDS011;11218;48.886;9.426;2023-02-28T12:54:12;27.05;;;11.35;;
22103;SDS011;11218;48.886;9.426;2023-02-28T12:56:50;26.38;;;10.88;;
22103;SDS011;11218;48.886;9.426;2023-02-28T12:59:29;32.10;;;12.25;;
22103;SDS011;11218;48.886;9.426;2023-02-28T13:05:29;34.95;;;11.95;;
22103;SDS011;11218;48.886;9.426;2023-02-28T13:08:17;27.00;;;11.45;;
22103;SDS011;11218;48.886;9.426;2023-02-28T13:10:55;26.23;;;10.77;;
22103;SDS011;11218;48.886;9.426;2023-02-28T13:13:23;30.92;;;11.80;;
22103;SDS011;11218;48.886;9.426;2023-02-28T13:15:58;28.58;;;10.77;;
22103;SDS011;11218;48.886;9.426;2023-02-28T13:18:33;31.23;;;11.55;;
22103;SDS011;11218;48.886;9.426;2023-02-28T13:21:07;24.30;;;11.07;;
22103;SDS011;11218;48.886;9.426;2023-02-28T13:23:59;29.60;;;11.55;;
22103;SDS011;11218;48.886;9.426;2023-02-28T13:29:36;30.15;;;11.68;;
22103;SDS011;11218;48.886;9.426;2023-02-28T13:35:13;25.02;;;10.90;;
22103;SDS011;11218;48.886;9.426;2023-02-28T13:37:43;30.58;;;11.40;;
22103;SDS011;11218;48.886;9.426;2023-02-28T13:40:29;29.35;;;11.45;;
22103;SDS011;11218;48.886;9.426;2023-02-28T13:43:05;32.25;;;11.73;;
22103;SDS011;11218;48.886;9.426;2023-02-28T13:45:36;29.60;;;11.13;;
22103;SDS011;11218;48.886;9.426;2023-02-28T13:48:16;26.42;;;11.00;;
22103;SDS011;11218;48.886;9.426;2023-02-28T13:50:46;27.08;;;11.15;;
22103;SDS011;11218;48.886;9.426;2023-02-28T13:56:28;29.45;;;12.00;;
22103;SDS011;11218;48.886;9.426;2023-02-28T13:59:12;30.23;;;11.45;;
22103;SDS011;11218;48.886;9.426;2023-02-28T14:01:52;28.50;;;11.57;;
22103;SDS011;11218;48.886;9.426;2023-02-28T14:04:44;30.35;;;11.57;;
22103;SDS011;11218;48.886;9.426;2023-02-28T14:07:21;29.48;;;12.05;;
22103;SDS011;11218;48.886;9.426;2023-02-28T14:09:57;24.60;;;11.13;;
22103;SDS011;11218;48.886;9.426;2023-02-28T14:15:41;31.10;;;12.45;;
22103;SDS011;11218;48.886;9.426;2023-02-28T14:18:14;31.42;;;12.05;;
22103;SDS011;11218;48.886;9.426;2023-02-28T14:23:56;31.95;;;12.23;;
22103;SDS011;11218;48.886;9.426;2023-02-28T14:26:58;29.08;;;11.45;;
22103;SDS011;11218;48.886;9.426;2023-02-28T14:29:53;29.25;;;11.93;;
22103;SDS011;11218;48.886;9.426;2023-02-28T14:32:34;31.58;;;11.90;;
22103;SDS011;11218;48.886;9.426;2023-02-28T14:35:13;32.30;;;12.77;;
22103;SDS011;11218;48.886;9.426;2023-02-28T14:37:51;34.05;;;12.60;;
22103;SDS011;11218;48.886;9.426;2023-02-28T14:40:25;31.00;;;11.60;;
22103;SDS011;11218;48.886;9.426;2023-02-28T14:42:56;24.95;;;11.65;;
22103;SDS011;11218;48.886;9.426;2023-02-28T14:45:26;30.10;;;12.15;;
22103;SDS011;11218;48.886;9.426;2023-02-28T14:47:57;29.08;;;11.93;;
22103;SDS011;11218;48.886;9.426;2023-02-28T14:50:27;27.30;;;11.25;;
22103;SDS011;11218;48.886;9.426;2023-02-28T14:52:59;26.92;;;11.25;;
22103;SDS011;11218;48.886;9.426;2023-02-28T14:55:28;27.00;;;11.43;;
22103;SDS011;11218;48.886;9.426;2023-02-28T14:57:58;32.95;;;12.57;;
22103;SDS011;11218;48.886;9.426;2023-02-28T15:00:29;37.20;;;13.32;;
22103;SDS011;11218;48.886;9.426;2023-02-28T15:03:00;34.95;;;13.00;;
22103;SDS011;11218;48.886;9.426;2023-02-28T15:05:51;33.03;;;13.38;;
22103;SDS011;11218;48.886;9.426;2023-02-28T15:08:22;32.90;;;12.88;;
22103;SDS011;11218;48.886;9.426;2023-02-28T15:10:51;33.10;;;12.35;;
22103;SDS011;11218;48.886;9.426;2023-02-28T15:13:22;40.85;;;14.05;;
22103;SDS011;11218;48.886;9.426;2023-02-28T15:15:54;46.15;;;14.07;;
22103;SDS011;11218;48.886;9.426;2023-02-28T15:18:30;38.30;;;13.20;;
22103;SDS011;11218;48.886;9.426;2023-02-28T15:21:06;44.92;;;14.52;;
22103;SDS011;11218;48.886;9.426;2023-02-28T15:23:40;37.88;;;12.98;;